Terminal Aerodrome Forecast
Issued by NWS Kansas City/Pleasant Hill, MO

Home | Current Version | Previous Version | Text Only | Print | Product List | Glossary On
Versions: 1 2 3 4 5 6 7 8 9 10 11 12 13 14 15 16
000
FTUS43 KEAX 231700
TAFMCI
TAF
KMCI 231721Z 2318/2418 18005KT 5SM BR VCSH BKN007 OVC015
      TEMPO 2318/2322 SCT007 BKN015
     FM232200 33015G25KT 6SM -RA BR OVC015
     FM240500 32020G32KT 6SM -SHRA OVC025
     FM241200 31015G22KT P6SM BKN030=

USA.gov is the U.S. government's official web portal to all federal, state and local government web resources and services.